< < Back
Terminal Aerodrome Forecast


Current Version              Previous Versions:   1  2  3  4  5  6  7  8  9  

Terminal Aerodrome Forecast

896
FTUS44 KHUN 021736
TAFHSV
TAF
KHSV 021736Z 0218/0318 20007KT P6SM VCTS SCT025CB OVC090
      TEMPO 0218/0222 3SM -TSRA BKN025CB
     FM022200 23005KT P6SM VCTS BKN030CB
     FM030300 30005KT P6SM BKN035 OVC250
     FM030800 34004KT 4SM BR SCT010 BKN035
     FM031200 32004KT P6SM SCT010 BKN035=



Latest METAR

419
SAUS80 KWBC 022300 RRA
MTRHSV
METAR KHSV 022253Z 00000KT 10SM FEW011 SCT020 BKN130 23/19 A2990 RMK AO2
SLP120 T02280189


USA.gov is the U.S. government's official web portal to all federal, state and local government web resources and services.